createdAt,value
2022-08-22T00:02:43.622Z,18.39
2022-08-22T00:02:44.020Z,17.95
2022-08-22T00:02:47.781Z,20.03
2022-08-22T00:02:48.150Z,19.83
2022-08-22T00:03:04.492Z,19.86
2022-08-22T00:03:07.585Z,19.01
2022-08-22T00:03:17.558Z,16.09
2022-08-22T00:06:02.244Z,15.97
2022-08-22T00:09:09.924Z,15.89
2022-08-22T00:12:17.595Z,15.89
2022-08-22T00:15:42.979Z,15.92
2022-08-22T00:18:30.184Z,15.84
2022-08-22T00:21:37.947Z,15.72
2022-08-22T00:24:45.643Z,15.60
2022-08-22T00:27:53.330Z,15.51
2022-08-22T00:31:01.534Z,15.46
2022-08-22T00:34:08.949Z,15.54
2022-08-22T00:37:16.822Z,15.56
2022-08-22T00:40:26.093Z,15.59
2022-08-22T00:43:25.783Z,15.48
2022-08-22T00:46:33.491Z,15.36
2022-08-22T00:49:40.896Z,15.28
2022-08-22T00:52:49.085Z,15.17
2022-08-22T00:55:56.387Z,15.19
2022-08-22T00:59:23.489Z,15.21
2022-08-22T01:02:09.886Z,15.11
2022-08-22T01:05:17.150Z,15.03
2022-08-22T01:08:25.498Z,14.93
2022-08-22T01:11:33.618Z,14.87
2022-08-22T01:14:40.953Z,14.80
2022-08-22T01:17:48.759Z,14.71
2022-08-22T01:20:56.374Z,14.75
2022-08-22T01:24:04.194Z,14.84
2022-08-22T01:27:12.366Z,14.72
2022-08-22T01:30:19.967Z,14.74
2022-08-22T01:33:30.945Z,14.86
2022-08-22T01:36:38.540Z,14.75
2022-08-22T01:39:46.608Z,14.65
2022-08-22T01:42:54.299Z,14.53
2022-08-22T01:46:02.010Z,14.46
2022-08-22T01:49:09.732Z,14.38
2022-08-22T01:52:17.861Z,14.49
2022-08-22T01:55:27.386Z,14.60
2022-08-22T01:58:35.041Z,14.69
2022-08-22T02:01:42.275Z,14.74
2022-08-22T02:04:50.303Z,14.69
2022-08-22T02:07:58.049Z,14.62
2022-08-22T02:11:05.756Z,14.50
2022-08-22T02:14:14.088Z,14.39
2022-08-22T02:17:21.468Z,14.29
2022-08-22T02:20:29.429Z,14.28
2022-08-22T02:23:37.601Z,14.37
2022-08-22T02:26:44.960Z,14.37
2022-08-22T02:29:53.080Z,14.43
2022-08-22T02:33:00.683Z,14.35
2022-08-22T02:36:08.543Z,14.32
2022-08-22T02:39:16.641Z,14.31
2022-08-22T02:42:24.095Z,14.16
2022-08-22T02:45:31.916Z,14.04
2022-08-22T02:48:39.607Z,13.99
2022-08-22T02:51:47.587Z,13.89
2022-08-22T02:54:55.303Z,13.84
2022-08-22T02:58:03.309Z,13.80
2022-08-22T03:01:11.082Z,13.76
2022-08-22T03:04:18.410Z,13.71
2022-08-22T03:07:26.402Z,13.65
2022-08-22T03:10:34.032Z,13.65
2022-08-22T03:13:41.672Z,13.62
2022-08-22T03:16:49.665Z,13.61
2022-08-22T03:19:57.255Z,13.58
2022-08-22T03:23:04.887Z,13.54
2022-08-22T03:26:12.996Z,13.54
2022-08-22T03:29:20.647Z,13.52
2022-08-22T03:32:28.386Z,13.44
2022-08-22T03:35:36.077Z,13.40
2022-08-22T03:38:43.830Z,13.46
2022-08-22T03:41:51.349Z,13.63
2022-08-22T03:44:59.401Z,13.69
2022-08-22T03:48:07.182Z,13.67
2022-08-22T03:51:15.013Z,13.58
2022-08-22T03:54:23.203Z,13.47
2022-08-22T03:57:30.514Z,13.52
2022-08-22T04:00:38.375Z,13.62
2022-08-22T04:03:46.457Z,13.70
2022-08-22T04:06:56.399Z,13.70
2022-08-22T04:10:04.487Z,13.67
2022-08-22T04:13:12.334Z,13.59
2022-08-22T04:16:20.088Z,13.51
2022-08-22T04:19:28.319Z,13.49
2022-08-22T04:22:36.220Z,13.52
2022-08-22T04:25:44.071Z,13.63
2022-08-22T04:28:51.971Z,13.70
2022-08-22T04:31:59.912Z,13.65
2022-08-22T04:35:08.103Z,13.55
2022-08-22T04:38:16.625Z,13.49
2022-08-22T04:41:24.206Z,13.47
2022-08-22T04:44:31.964Z,13.49
2022-08-22T04:47:39.967Z,13.51
2022-08-22T04:50:47.727Z,13.52
2022-08-22T04:53:55.428Z,13.49
2022-08-22T04:57:03.618Z,13.51
2022-08-22T05:00:11.389Z,13.58
2022-08-22T05:03:19.229Z,13.63
2022-08-22T05:06:27.181Z,13.74
2022-08-22T05:09:34.519Z,13.87
2022-08-22T05:12:42.622Z,13.95
2022-08-22T05:15:50.334Z,13.99
2022-08-22T05:18:57.794Z,14.07
2022-08-22T05:22:05.835Z,14.12
2022-08-22T05:25:13.144Z,14.16
2022-08-22T05:28:21.174Z,14.20
2022-08-22T05:31:29.167Z,14.38
2022-08-22T05:34:36.458Z,14.52
2022-08-22T05:37:44.329Z,14.74
2022-08-22T05:40:52.020Z,14.93
2022-08-22T05:43:59.837Z,15.11
2022-08-22T05:47:08.191Z,15.24
2022-08-22T05:50:16.082Z,15.35
2022-08-22T05:53:23.805Z,15.48
2022-08-22T05:56:31.444Z,15.61
2022-08-22T05:59:39.515Z,15.70
2022-08-22T06:02:47.196Z,15.76
2022-08-22T06:05:54.656Z,15.84
2022-08-22T06:09:02.675Z,15.99
2022-08-22T06:12:13.749Z,16.11
2022-08-22T06:15:15.220Z,16.25
2022-08-22T06:18:24.710Z,16.35
2022-08-22T06:21:38.639Z,16.49
2022-08-22T06:24:35.832Z,16.59
2022-08-22T06:27:43.122Z,16.70
2022-08-22T06:30:51.353Z,16.80
2022-08-22T06:33:59.505Z,16.92
2022-08-22T06:37:06.805Z,17.03
2022-08-22T06:40:15.055Z,17.15
2022-08-22T06:43:22.546Z,17.26
2022-08-22T06:46:30.828Z,17.35
2022-08-22T06:49:39.018Z,17.41
2022-08-22T06:52:46.717Z,17.48
2022-08-22T06:55:54.400Z,17.59
2022-08-22T06:59:02.351Z,17.70
2022-08-22T07:02:09.701Z,17.79
2022-08-22T07:05:17.550Z,17.87
2022-08-22T07:08:25.404Z,17.92
2022-08-22T07:11:33.663Z,18.02
2022-08-22T07:14:41.476Z,18.13
2022-08-22T07:17:49.219Z,18.24
2022-08-22T07:20:57.349Z,18.28
2022-08-22T07:24:05.229Z,18.36
2022-08-22T07:27:13.550Z,18.46
2022-08-22T07:30:27.660Z,18.64
2022-08-22T07:33:27.017Z,18.80
2022-08-22T07:36:35.284Z,18.95
2022-08-22T07:39:42.992Z,19.08
2022-08-22T07:42:51.395Z,19.29
2022-08-22T07:45:59.325Z,19.47
2022-08-22T07:49:09.654Z,19.57
2022-08-22T07:52:07.389Z,19.66
2022-08-22T07:55:15.549Z,19.88
2022-08-22T07:58:22.851Z,20.02
2022-08-22T08:01:31.179Z,20.20
2022-08-22T08:04:40.565Z,20.34
2022-08-22T08:07:48.514Z,20.41
2022-08-22T08:10:56.675Z,20.50
2022-08-22T08:14:04.426Z,20.58
2022-08-22T08:17:12.167Z,20.74
2022-08-22T08:20:20.048Z,20.84
2022-08-22T08:23:28.000Z,20.90
2022-08-22T08:26:35.847Z,21.09
2022-08-22T08:29:43.540Z,21.30
2022-08-22T08:32:51.444Z,21.46
2022-08-22T08:36:03.065Z,21.64
2022-08-22T08:39:00.056Z,21.74
2022-08-22T08:42:07.708Z,21.94
2022-08-22T08:45:15.306Z,22.06
2022-08-22T08:48:23.546Z,22.17
2022-08-22T08:51:30.985Z,22.34
2022-08-22T08:54:39.009Z,22.52
2022-08-22T08:57:49.421Z,22.65
2022-08-22T09:00:57.028Z,22.86
2022-08-22T09:04:07.372Z,22.96
2022-08-22T09:07:11.815Z,22.94
2022-08-22T09:10:19.595Z,23.05
2022-08-22T09:13:27.746Z,23.11
2022-08-22T09:16:31.640Z,23.26
2022-08-22T09:19:39.328Z,23.29
2022-08-22T09:22:50.667Z,23.50
2022-08-22T09:25:50.362Z,23.71
2022-08-22T09:28:57.962Z,23.75
2022-08-22T09:32:05.680Z,23.85
2022-08-22T09:35:10.030Z,24.02
2022-08-22T09:38:17.775Z,24.27
2022-08-22T09:41:27.475Z,24.50
2022-08-22T09:44:39.751Z,24.63
2022-08-22T09:47:47.349Z,24.67
2022-08-22T09:51:04.652Z,24.76
2022-08-22T09:54:00.124Z,24.97
2022-08-22T09:57:08.282Z,25.19
2022-08-22T10:00:16.334Z,25.25
2022-08-22T10:03:23.632Z,25.32
2022-08-22T10:06:31.735Z,25.32
2022-08-22T10:09:40.367Z,25.30
2022-08-22T10:12:48.167Z,25.38
2022-08-22T10:15:58.076Z,25.47
2022-08-22T10:19:06.440Z,25.62
2022-08-22T10:22:14.173Z,25.69
2022-08-22T10:25:22.126Z,25.65
2022-08-22T10:28:31.204Z,25.75
2022-08-22T10:31:58.502Z,25.86
2022-08-22T10:34:44.637Z,26.12
2022-08-22T10:37:53.128Z,26.49
2022-08-22T10:41:00.630Z,26.61
2022-08-22T10:44:08.260Z,26.52
2022-08-22T10:47:19.143Z,26.52
2022-08-22T10:50:29.014Z,26.57
2022-08-22T10:53:29.686Z,26.40
2022-08-22T10:56:37.622Z,26.24
2022-08-22T10:59:37.285Z,26.21
2022-08-22T11:02:47.502Z,26.27
2022-08-22T11:05:54.885Z,26.40
2022-08-22T11:09:02.831Z,26.52
2022-08-22T11:12:10.641Z,26.73
2022-08-22T11:15:28.483Z,26.73
2022-08-22T11:18:23.525Z,26.86
2022-08-22T11:21:31.316Z,27.42
2022-08-22T11:24:55.785Z,27.79
2022-08-22T11:27:44.446Z,27.73
2022-08-22T11:30:52.278Z,27.74
2022-08-22T11:34:00.084Z,27.48
2022-08-22T11:37:11.084Z,27.80
2022-08-22T11:40:19.159Z,27.98
2022-08-22T11:43:27.886Z,28.28
2022-08-22T11:46:29.606Z,28.17
2022-08-22T11:49:37.566Z,28.14
2022-08-22T11:52:51.737Z,27.66
2022-08-22T11:55:49.560Z,27.61
2022-08-22T11:58:57.350Z,27.94
2022-08-22T12:02:04.999Z,27.95
2022-08-22T12:05:06.173Z,27.96
2022-08-22T12:08:14.035Z,27.96
2022-08-22T12:11:21.947Z,27.88
2022-08-22T12:14:30.054Z,27.99
2022-08-22T12:17:55.485Z,27.95
2022-08-22T12:20:45.392Z,27.91
2022-08-22T12:23:53.322Z,28.10
2022-08-22T12:27:00.673Z,28.22
2022-08-22T12:30:12.882Z,27.84
2022-08-22T12:33:10.446Z,27.50
2022-08-22T12:36:18.079Z,27.47
2022-08-22T12:39:15.769Z,27.43
2022-08-22T12:42:23.549Z,27.43
2022-08-22T12:45:32.292Z,27.79
2022-08-22T12:48:40.275Z,28.21
2022-08-22T12:51:48.584Z,28.47
2022-08-22T12:54:49.697Z,28.80
2022-08-22T12:57:57.346Z,29.25
2022-08-22T13:01:05.142Z,29.35
2022-08-22T13:04:19.327Z,29.62
2022-08-22T13:07:19.504Z,29.47
2022-08-22T13:10:19.711Z,29.25
2022-08-22T13:13:31.742Z,29.59
2022-08-22T13:16:32.524Z,30.09
2022-08-22T13:19:40.486Z,30.54
2022-08-22T13:22:48.956Z,30.71
2022-08-22T13:25:51.450Z,30.50
2022-08-22T13:29:15.523Z,30.37
2022-08-22T13:32:04.730Z,30.50
2022-08-22T13:35:12.144Z,30.29
2022-08-22T13:38:25.629Z,30.29
2022-08-22T13:41:23.686Z,30.27
2022-08-22T13:44:31.068Z,30.30
2022-08-22T13:47:39.711Z,30.76
2022-08-22T13:50:53.638Z,30.78
2022-08-22T13:54:01.899Z,30.49
2022-08-22T13:56:56.014Z,30.27
2022-08-22T14:00:06.486Z,30.23
2022-08-22T14:03:14.618Z,30.16
2022-08-22T14:06:32.606Z,29.75
2022-08-22T14:09:32.036Z,29.19
2022-08-22T14:12:29.231Z,28.96
2022-08-22T14:15:33.926Z,29.33
2022-08-22T14:18:35.713Z,29.59
2022-08-22T14:21:43.124Z,29.68
2022-08-22T14:24:55.523Z,29.50
2022-08-22T14:27:52.457Z,29.35
2022-08-22T14:31:01.133Z,29.47
2022-08-22T14:34:10.059Z,30.00
2022-08-22T14:37:17.688Z,30.71
2022-08-22T14:40:26.125Z,31.05
2022-08-22T14:43:34.904Z,30.64
2022-08-22T14:46:37.465Z,30.40
2022-08-22T14:49:47.202Z,30.26
2022-08-22T14:52:54.745Z,29.82
2022-08-22T14:56:02.538Z,29.59
2022-08-22T14:59:11.040Z,29.56
2022-08-22T15:02:11.641Z,29.40
2022-08-22T15:05:19.333Z,29.38
2022-08-22T15:08:27.477Z,29.77
2022-08-22T15:11:35.464Z,30.31
2022-08-22T15:14:43.606Z,30.54
2022-08-22T15:17:52.331Z,30.47
2022-08-22T15:21:00.270Z,30.43
2022-08-22T15:24:07.883Z,30.31
2022-08-22T15:27:16.552Z,30.24
2022-08-22T15:30:25.254Z,30.19
2022-08-22T15:33:33.877Z,30.33
2022-08-22T15:36:42.518Z,30.29
2022-08-22T15:39:50.609Z,29.87
2022-08-22T15:42:59.432Z,29.63
2022-08-22T15:46:07.449Z,29.44
2022-08-22T15:49:18.071Z,29.79
2022-08-22T15:52:26.048Z,30.12
2022-08-22T15:55:34.459Z,29.66
2022-08-22T15:58:48.809Z,29.62
2022-08-22T16:01:49.700Z,29.78
2022-08-22T16:04:47.356Z,29.79
2022-08-22T16:07:54.750Z,29.97
2022-08-22T16:11:02.591Z,30.27
2022-08-22T16:14:10.743Z,30.47
2022-08-22T16:17:18.054Z,30.30
2022-08-22T16:20:26.175Z,30.14
2022-08-22T16:23:33.747Z,29.99
2022-08-22T16:26:41.118Z,29.78
2022-08-22T16:29:48.930Z,29.77
2022-08-22T16:32:56.671Z,29.84
2022-08-22T16:36:04.464Z,29.82
2022-08-22T16:39:12.314Z,29.82
2022-08-22T16:42:20.225Z,29.63
2022-08-22T16:45:28.226Z,29.47
2022-08-22T16:48:36.195Z,29.34
2022-08-22T16:51:44.205Z,29.16
2022-08-22T16:54:51.522Z,28.75
2022-08-22T16:58:06.442Z,28.51
2022-08-22T17:01:03.403Z,28.41
2022-08-22T17:04:10.671Z,28.14
2022-08-22T17:07:18.983Z,28.16
2022-08-22T17:10:26.817Z,28.19
2022-08-22T17:13:34.163Z,28.10
2022-08-22T17:16:42.161Z,27.89
2022-08-22T17:19:49.481Z,27.82
2022-08-22T17:22:58.122Z,27.85
2022-08-22T17:26:06.135Z,27.74
2022-08-22T17:29:13.485Z,27.58
2022-08-22T17:32:21.674Z,27.41
2022-08-22T17:35:29.409Z,27.28
2022-08-22T17:38:36.871Z,27.09
2022-08-22T17:41:44.822Z,26.89
2022-08-22T17:44:53.334Z,26.76
2022-08-22T17:48:00.990Z,26.57
2022-08-22T17:51:09.135Z,26.36
2022-08-22T17:54:16.917Z,26.24
2022-08-22T17:57:24.858Z,26.12
2022-08-22T18:00:32.629Z,26.08
2022-08-22T18:03:40.331Z,26.01
2022-08-22T18:06:48.081Z,25.80
2022-08-22T18:09:51.573Z,25.61
2022-08-22T18:13:02.413Z,25.49
2022-08-22T18:16:03.372Z,25.35
2022-08-22T18:19:10.886Z,25.24
2022-08-22T18:22:18.535Z,25.10
2022-08-22T18:25:26.158Z,25.05
2022-08-22T18:28:34.500Z,24.98
2022-08-22T18:31:42.471Z,24.90
2022-08-22T18:34:50.323Z,24.71
2022-08-22T18:37:58.205Z,24.57
2022-08-22T18:41:05.956Z,24.47
2022-08-22T18:44:13.788Z,24.39
2022-08-22T18:47:21.498Z,24.29
2022-08-22T18:50:28.876Z,24.24
2022-08-22T18:53:36.931Z,24.10
2022-08-22T18:56:44.681Z,24.02
2022-08-22T18:59:52.044Z,23.94
2022-08-22T19:03:00.163Z,23.77
2022-08-22T19:06:07.837Z,23.57
2022-08-22T19:09:15.567Z,23.39
2022-08-22T19:12:23.457Z,23.22
2022-08-22T19:15:30.812Z,23.09
2022-08-22T19:18:39.040Z,22.96
2022-08-22T19:21:47.099Z,22.87
2022-08-22T19:24:54.432Z,22.77
2022-08-22T19:28:02.261Z,22.72
2022-08-22T19:31:12.076Z,22.67
2022-08-22T19:34:10.476Z,22.65
2022-08-22T19:37:31.901Z,22.53
2022-08-22T19:40:24.016Z,22.43
2022-08-22T19:43:31.829Z,22.31
2022-08-22T19:46:39.522Z,22.20
2022-08-22T19:49:47.663Z,22.12
2022-08-22T19:52:56.182Z,22.02
2022-08-22T19:56:03.604Z,21.97
2022-08-22T19:59:11.526Z,21.97
2022-08-22T20:02:21.099Z,21.99
2022-08-22T20:05:28.989Z,22.04
2022-08-22T20:08:36.610Z,22.12
2022-08-22T20:11:44.310Z,22.19
2022-08-22T20:14:52.242Z,22.17
2022-08-22T20:21:04.984Z,22.12
2022-08-22T20:24:12.695Z,22.06
2022-08-22T20:27:20.099Z,22.01
2022-08-22T20:30:28.089Z,21.92
2022-08-22T20:33:37.240Z,21.88
2022-08-22T20:36:44.601Z,21.81
2022-08-22T20:39:58.818Z,21.78
2022-08-22T20:42:57.053Z,21.74
2022-08-22T20:46:04.846Z,21.66
2022-08-22T20:49:13.134Z,21.59
2022-08-22T20:52:13.996Z,21.54
2022-08-22T20:55:21.659Z,21.48
2022-08-22T20:58:29.728Z,21.42
2022-08-22T21:01:30.528Z,21.36
2022-08-22T21:04:42.066Z,21.32
2022-08-22T21:07:39.711Z,21.26
2022-08-22T21:10:49.162Z,21.21
2022-08-22T21:13:56.864Z,21.17
2022-08-22T21:17:04.546Z,21.09
2022-08-22T21:20:12.265Z,21.06
2022-08-22T21:23:19.537Z,21.02
2022-08-22T21:26:27.556Z,20.98
2022-08-22T21:29:35.758Z,20.99
2022-08-22T21:32:43.099Z,20.96
2022-08-22T21:35:51.210Z,20.91
2022-08-22T21:38:58.872Z,20.89
2022-08-22T21:42:06.574Z,20.84
2022-08-22T21:45:14.464Z,20.81
2022-08-22T21:48:22.084Z,20.79
2022-08-22T21:51:29.786Z,20.72
2022-08-22T21:54:37.784Z,20.66
2022-08-22T21:57:45.158Z,20.62
2022-08-22T22:00:52.960Z,20.61
2022-08-22T22:04:02.601Z,20.62
2022-08-22T22:07:12.481Z,20.62
2022-08-22T22:10:14.532Z,20.59
2022-08-22T22:13:23.824Z,20.56
2022-08-22T22:16:33.809Z,20.50
2022-08-22T22:19:42.175Z,20.50
2022-08-22T22:22:51.296Z,20.46
2022-08-22T22:26:00.648Z,20.41
2022-08-22T22:29:09.278Z,20.35
2022-08-22T22:32:10.219Z,20.28
2022-08-22T22:35:19.760Z,20.25
2022-08-22T22:38:28.593Z,20.23
2022-08-22T22:41:38.031Z,20.21
2022-08-22T22:44:47.661Z,20.13
2022-08-22T22:47:56.532Z,20.09
2022-08-22T22:51:05.905Z,20.00
2022-08-22T22:54:14.263Z,20.00
2022-08-22T22:57:25.541Z,19.95
2022-08-22T23:00:34.560Z,19.90
2022-08-22T23:03:42.850Z,19.84
2022-08-22T23:06:53.301Z,19.76
2022-08-22T23:10:02.236Z,19.72
2022-08-22T23:13:09.881Z,19.66
2022-08-22T23:16:17.793Z,19.65
2022-08-22T23:19:25.415Z,19.61
2022-08-22T23:22:33.016Z,19.55
2022-08-22T23:25:40.906Z,19.55
2022-08-22T23:28:48.815Z,19.53
2022-08-22T23:31:56.565Z,19.48
2022-08-22T23:35:04.591Z,19.46
2022-08-22T23:38:12.201Z,19.42
2022-08-22T23:41:19.702Z,19.39
2022-08-22T23:44:27.143Z,19.36
2022-08-22T23:47:35.185Z,19.31
2022-08-22T23:50:42.865Z,19.25
2022-08-22T23:53:50.817Z,19.21
2022-08-22T23:56:58.926Z,19.15
